createdAt,value
2022-11-14T00:03:50.312Z,5.17
2022-11-14T00:07:35.291Z,5.17
2022-11-14T00:11:19.130Z,5.15
2022-11-14T00:15:03.061Z,5.15
2022-11-14T00:18:47.326Z,5.15
2022-11-14T00:22:31.509Z,5.16
2022-11-14T00:26:15.027Z,5.18
2022-11-14T00:29:59.281Z,5.18
2022-11-14T00:33:43.427Z,5.19
2022-11-14T00:37:28.290Z,5.20
2022-11-14T00:41:11.987Z,5.21
2022-11-14T00:44:55.992Z,5.21
2022-11-14T00:48:39.915Z,5.21
2022-11-14T00:52:24.534Z,5.21
2022-11-14T00:56:08.681Z,5.21
2022-11-14T00:59:55.647Z,5.19
2022-11-14T01:03:39.884Z,5.20
2022-11-14T01:07:23.613Z,5.23
2022-11-14T01:11:12.812Z,5.26
2022-11-14T01:14:57.120Z,5.32
2022-11-14T01:18:41.138Z,5.38
2022-11-14T01:22:24.834Z,5.44
2022-11-14T01:26:10.243Z,5.51
2022-11-14T01:29:54.686Z,5.56
2022-11-14T01:33:39.151Z,5.60
2022-11-14T01:37:23.192Z,5.65
2022-11-14T01:41:07.839Z,5.69
2022-11-14T01:44:53.303Z,5.72
2022-11-14T01:48:39.842Z,5.76
2022-11-14T01:52:25.934Z,5.79
2022-11-14T01:56:12.805Z,5.81
2022-11-14T02:00:00.317Z,5.83
2022-11-14T02:03:45.722Z,5.83
2022-11-14T02:07:32.254Z,5.81
2022-11-14T02:11:16.072Z,5.78
2022-11-14T02:15:00.426Z,5.75
2022-11-14T02:18:44.270Z,5.72
2022-11-14T02:22:28.300Z,5.70
2022-11-14T02:26:12.734Z,5.67
2022-11-14T02:30:03.823Z,5.66
2022-11-14T02:33:48.075Z,5.65
2022-11-14T02:37:32.004Z,5.64
2022-11-14T02:41:16.386Z,5.64
2022-11-14T02:45:00.225Z,5.63
2022-11-14T02:48:44.052Z,5.60
2022-11-14T02:52:28.045Z,5.57
2022-11-14T02:56:12.286Z,5.54
2022-11-14T02:59:56.738Z,5.51
2022-11-14T03:03:41.106Z,5.47
2022-11-14T03:07:24.994Z,5.42
2022-11-14T03:11:10.371Z,5.37
2022-11-14T03:14:54.595Z,5.34
2022-11-14T03:18:39.880Z,5.31
2022-11-14T03:22:23.825Z,5.30
2022-11-14T03:26:09.695Z,5.28
2022-11-14T03:29:53.487Z,5.24
2022-11-14T03:33:37.508Z,5.21
2022-11-14T03:37:21.352Z,5.20
2022-11-14T03:41:05.041Z,5.18
2022-11-14T03:44:48.985Z,5.14
2022-11-14T03:48:33.670Z,5.09
2022-11-14T03:52:17.558Z,5.03
2022-11-14T03:56:01.680Z,4.98
2022-11-14T03:59:45.732Z,4.92
2022-11-14T04:03:29.926Z,4.91
2022-11-14T04:07:14.295Z,4.91
2022-11-14T04:10:58.563Z,4.88
2022-11-14T04:14:42.975Z,4.84
2022-11-14T04:18:27.655Z,4.81
2022-11-14T04:22:11.706Z,4.78
2022-11-14T04:25:56.093Z,4.75
2022-11-14T04:29:40.174Z,4.73
2022-11-14T04:33:23.888Z,4.75
2022-11-14T04:37:08.157Z,4.73
2022-11-14T04:40:53.026Z,4.72
2022-11-14T04:44:36.828Z,4.71
2022-11-14T04:48:21.226Z,4.72
2022-11-14T04:52:05.453Z,4.74
2022-11-14T04:55:49.711Z,4.77
2022-11-14T04:59:33.931Z,4.80
2022-11-14T05:03:17.826Z,4.80
2022-11-14T05:07:01.758Z,4.81
2022-11-14T05:10:46.761Z,4.83
2022-11-14T05:14:31.769Z,4.85
2022-11-14T05:18:15.527Z,4.89
2022-11-14T05:21:59.623Z,4.93
2022-11-14T05:25:43.603Z,4.96
2022-11-14T05:29:27.268Z,4.99
2022-11-14T05:33:11.213Z,5.01
2022-11-14T05:36:55.043Z,5.04
2022-11-14T05:40:39.676Z,5.07
2022-11-14T05:44:23.553Z,5.10
2022-11-14T05:48:07.720Z,5.12
2022-11-14T05:51:51.401Z,5.13
2022-11-14T05:55:35.341Z,5.14
2022-11-14T05:59:19.000Z,5.16
2022-11-14T06:03:02.772Z,5.20
2022-11-14T06:06:46.463Z,5.23
2022-11-14T06:10:29.959Z,5.23
2022-11-14T06:14:14.197Z,5.24
2022-11-14T06:17:58.923Z,5.24
2022-11-14T06:21:42.703Z,5.22
2022-11-14T06:25:26.489Z,5.21
2022-11-14T06:29:10.966Z,5.18
2022-11-14T06:32:59.345Z,5.17
2022-11-14T06:36:43.161Z,5.19
2022-11-14T06:40:27.031Z,5.18
2022-11-14T06:44:10.991Z,5.18
2022-11-14T06:47:59.028Z,5.18
2022-11-14T06:51:43.083Z,5.17
2022-11-14T06:55:26.736Z,5.18
2022-11-14T06:59:10.242Z,5.17
2022-11-14T07:02:54.095Z,5.17
2022-11-14T07:06:37.911Z,5.18
2022-11-14T07:10:21.693Z,5.17
2022-11-14T07:14:06.787Z,5.17
2022-11-14T07:17:50.788Z,5.18
2022-11-14T07:21:35.137Z,5.20
2022-11-14T07:25:19.027Z,5.21
2022-11-14T07:29:03.109Z,5.22
2022-11-14T07:32:47.080Z,5.25
2022-11-14T07:36:30.851Z,5.30
2022-11-14T07:40:14.548Z,5.34
2022-11-14T07:43:58.259Z,5.38
2022-11-14T07:47:42.006Z,5.42
2022-11-14T07:51:25.607Z,5.48
2022-11-14T07:55:10.465Z,5.54
2022-11-14T07:58:54.349Z,5.55
2022-11-14T08:02:38.043Z,5.57
2022-11-14T08:06:21.743Z,5.62
2022-11-14T08:10:05.825Z,5.65
2022-11-14T08:13:50.135Z,5.67
2022-11-14T08:17:34.013Z,5.70
2022-11-14T08:21:17.663Z,5.72
2022-11-14T08:25:01.340Z,5.74
2022-11-14T08:28:45.266Z,5.77
2022-11-14T08:32:28.823Z,5.80
2022-11-14T08:36:12.988Z,5.84
2022-11-14T08:39:57.194Z,5.87
2022-11-14T08:43:41.130Z,5.87
2022-11-14T08:47:24.914Z,5.89
2022-11-14T08:51:08.978Z,5.91
2022-11-14T08:54:52.981Z,5.92
2022-11-14T08:58:36.611Z,5.95
2022-11-14T09:02:20.302Z,5.95
2022-11-14T09:06:04.671Z,5.97
2022-11-14T09:09:48.677Z,6.04
2022-11-14T09:13:34.717Z,6.11
2022-11-14T09:17:18.373Z,6.18
2022-11-14T09:21:03.035Z,6.24
2022-11-14T09:24:49.469Z,6.33
2022-11-14T09:28:32.993Z,6.42
2022-11-14T09:32:17.010Z,6.50
2022-11-14T09:36:01.195Z,6.58
2022-11-14T09:39:45.097Z,6.67
2022-11-14T09:43:39.161Z,6.71
2022-11-14T09:47:24.579Z,6.77
2022-11-14T09:51:10.613Z,6.85
2022-11-14T09:54:56.822Z,6.92
2022-11-14T09:58:41.830Z,6.91
2022-11-14T10:02:37.940Z,6.95
2022-11-14T10:06:27.535Z,7.03
2022-11-14T10:10:18.624Z,7.09
2022-11-14T10:14:20.645Z,7.16
2022-11-14T10:18:13.409Z,7.19
2022-11-14T10:22:05.485Z,7.24
2022-11-14T10:25:54.637Z,7.28
2022-11-14T10:29:53.646Z,7.32
2022-11-14T10:33:43.257Z,7.39
2022-11-14T10:37:30.661Z,7.42
2022-11-14T10:41:34.727Z,7.41
2022-11-14T10:45:24.346Z,7.53
2022-11-14T10:49:16.652Z,7.67
2022-11-14T10:53:02.925Z,7.76
2022-11-14T10:56:49.952Z,7.87
2022-11-14T11:00:33.841Z,7.95
2022-11-14T11:04:23.150Z,8.06
2022-11-14T11:08:42.646Z,8.15
2022-11-14T11:12:42.618Z,8.23
2022-11-14T11:16:27.321Z,8.32
2022-11-14T11:20:30.663Z,8.40
2022-11-14T11:24:31.221Z,8.44
2022-11-14T11:28:15.999Z,8.58
2022-11-14T11:32:00.471Z,8.81
2022-11-14T11:35:44.797Z,9.08
2022-11-14T11:39:30.772Z,9.28
2022-11-14T11:43:38.769Z,9.38
2022-11-14T11:47:21.139Z,9.38
2022-11-14T11:51:05.755Z,9.27
2022-11-14T11:54:55.238Z,9.20
2022-11-14T11:58:42.246Z,9.11
2022-11-14T12:02:27.209Z,9.02
2022-11-14T12:06:15.355Z,8.96
2022-11-14T12:10:15.777Z,8.99
2022-11-14T12:14:09.276Z,9.04
2022-11-14T12:18:04.752Z,8.99
2022-11-14T12:21:59.056Z,8.95
2022-11-14T12:25:47.684Z,8.95
2022-11-14T12:29:40.835Z,8.97
2022-11-14T12:33:26.477Z,9.04
2022-11-14T12:37:16.296Z,9.10
2022-11-14T12:41:01.345Z,9.17
2022-11-14T12:44:44.953Z,9.22
2022-11-14T12:48:32.203Z,9.26
2022-11-14T12:52:29.684Z,9.29
2022-11-14T12:56:40.322Z,9.30
2022-11-14T13:00:24.054Z,9.33
2022-11-14T13:04:17.140Z,9.37
2022-11-14T13:08:09.549Z,9.38
2022-11-14T13:12:11.380Z,9.41
2022-11-14T13:16:13.454Z,9.44
2022-11-14T13:20:15.917Z,9.46
2022-11-14T13:23:59.588Z,9.47
2022-11-14T13:28:06.636Z,9.48
2022-11-14T13:31:48.848Z,9.47
2022-11-14T13:35:38.185Z,9.48
2022-11-14T13:39:24.570Z,9.48
2022-11-14T13:43:12.849Z,9.48
2022-11-14T13:47:04.179Z,9.48
2022-11-14T13:50:50.864Z,9.47
2022-11-14T13:54:34.963Z,9.46
2022-11-14T13:58:25.906Z,9.43
2022-11-14T14:02:36.131Z,9.41
2022-11-14T14:06:32.836Z,9.37
2022-11-14T14:10:26.681Z,9.34
2022-11-14T14:14:16.652Z,9.32
2022-11-14T14:18:07.148Z,9.27
2022-11-14T14:21:55.483Z,9.20
2022-11-14T14:25:42.710Z,9.16
2022-11-14T14:29:31.084Z,9.09
2022-11-14T14:33:15.951Z,9.03
2022-11-14T14:36:59.708Z,8.96
2022-11-14T14:40:43.721Z,8.89
2022-11-14T14:44:29.865Z,8.83
2022-11-14T14:48:14.446Z,8.75
2022-11-14T14:51:58.861Z,8.68
2022-11-14T14:55:43.557Z,8.57
2022-11-14T14:59:27.899Z,8.46
2022-11-14T15:03:12.108Z,8.36
2022-11-14T15:06:57.443Z,8.24
2022-11-14T15:10:42.311Z,8.10
2022-11-14T15:14:27.460Z,7.97
2022-11-14T15:18:24.360Z,7.84
2022-11-14T15:22:23.118Z,7.71
2022-11-14T15:26:12.398Z,7.58
2022-11-14T15:29:59.233Z,7.45
2022-11-14T15:33:43.137Z,7.34
2022-11-14T15:37:28.172Z,7.26
2022-11-14T15:41:18.912Z,7.18
2022-11-14T15:45:21.643Z,7.11
2022-11-14T15:49:10.008Z,7.03
2022-11-14T15:52:56.200Z,6.97
2022-11-14T15:56:39.766Z,6.90
2022-11-14T16:00:24.204Z,6.83
2022-11-14T16:04:09.992Z,6.77
2022-11-14T16:07:53.678Z,6.71
2022-11-14T16:11:37.371Z,6.65
2022-11-14T16:15:22.347Z,6.60
2022-11-14T16:19:06.344Z,6.54
2022-11-14T16:22:53.104Z,6.48
2022-11-14T16:26:38.243Z,6.43
2022-11-14T16:30:23.662Z,6.38
2022-11-14T16:34:07.810Z,6.34
2022-11-14T16:37:51.670Z,6.31
2022-11-14T16:41:35.925Z,6.28
2022-11-14T16:45:20.681Z,6.23
2022-11-14T16:49:04.595Z,6.21
2022-11-14T16:52:48.851Z,6.18
2022-11-14T16:56:32.494Z,6.15
2022-11-14T17:00:16.410Z,6.12
2022-11-14T17:04:01.125Z,6.09
2022-11-14T17:07:45.267Z,6.06
2022-11-14T17:11:29.350Z,6.01
2022-11-14T17:15:13.077Z,5.96
2022-11-14T17:18:57.163Z,5.91
2022-11-14T17:22:40.936Z,5.86
2022-11-14T17:26:25.180Z,5.81
2022-11-14T17:30:12.212Z,5.76
2022-11-14T17:33:57.431Z,5.71
2022-11-14T17:37:41.191Z,5.65
2022-11-14T17:41:25.182Z,5.61
2022-11-14T17:45:09.980Z,5.56
2022-11-14T17:48:53.697Z,5.52
2022-11-14T17:52:37.350Z,5.46
2022-11-14T17:56:22.225Z,5.42
2022-11-14T18:00:07.305Z,5.37
2022-11-14T18:03:51.733Z,5.31
2022-11-14T18:07:35.480Z,5.29
2022-11-14T18:11:20.604Z,5.26
2022-11-14T18:15:05.124Z,5.20
2022-11-14T18:18:49.212Z,5.17
2022-11-14T18:22:33.340Z,5.12
2022-11-14T18:26:18.183Z,5.08
2022-11-14T18:30:19.725Z,5.03
2022-11-14T18:34:05.920Z,4.97
2022-11-14T18:37:50.069Z,4.91
2022-11-14T18:41:34.294Z,4.88
2022-11-14T18:45:18.417Z,4.84
2022-11-14T18:49:02.118Z,4.80
2022-11-14T18:52:45.869Z,4.76
2022-11-14T18:56:29.913Z,4.71
2022-11-14T19:00:15.267Z,4.67
2022-11-14T19:04:00.326Z,4.63
2022-11-14T19:07:44.506Z,4.58
2022-11-14T19:11:44.733Z,4.55
2022-11-14T19:15:28.854Z,4.50
2022-11-14T19:19:12.616Z,4.47
2022-11-14T19:22:56.392Z,4.44
2022-11-14T19:26:40.533Z,4.40
2022-11-14T19:30:24.482Z,4.38
2022-11-14T19:34:08.030Z,4.34
2022-11-14T19:37:52.164Z,4.31
2022-11-14T19:41:35.695Z,4.28
2022-11-14T19:45:19.521Z,4.26
2022-11-14T20:46:00.174Z,3.56
2022-11-14T20:49:46.982Z,3.52
2022-11-14T20:53:34.004Z,3.51
2022-11-14T20:57:19.599Z,3.54
2022-11-14T21:01:05.700Z,3.57
2022-11-14T21:04:51.598Z,3.58
2022-11-14T21:08:38.140Z,3.57
2022-11-14T21:12:23.691Z,3.53
2022-11-14T21:16:12.338Z,3.50
2022-11-14T21:19:58.474Z,3.46
2022-11-14T21:23:45.532Z,3.44
2022-11-14T21:27:30.990Z,3.40
2022-11-14T21:31:20.846Z,3.36
2022-11-14T21:35:09.644Z,3.30
2022-11-14T21:38:56.144Z,3.27
2022-11-14T21:42:42.074Z,3.25
2022-11-14T21:46:27.947Z,3.26
2022-11-14T21:50:13.370Z,3.29
2022-11-14T21:53:59.431Z,3.31
2022-11-14T21:57:44.865Z,3.35
2022-11-14T22:01:44.135Z,3.39
2022-11-14T22:05:29.929Z,3.41
2022-11-14T22:09:15.358Z,3.43
2022-11-14T22:13:01.409Z,3.44
2022-11-14T22:16:47.184Z,3.46
2022-11-14T22:20:32.363Z,3.48
2022-11-14T22:24:17.549Z,3.49
2022-11-14T22:28:02.762Z,3.50
2022-11-14T22:31:48.342Z,3.52
2022-11-14T22:35:37.050Z,3.52
2022-11-14T22:39:22.232Z,3.53
2022-11-14T22:43:07.621Z,3.53
2022-11-14T22:46:53.036Z,3.55
2022-11-14T22:50:38.526Z,3.56
2022-11-14T22:54:23.643Z,3.57
2022-11-14T22:58:08.936Z,3.59
2022-11-14T23:01:55.978Z,3.59
2022-11-14T23:05:41.719Z,3.60
2022-11-14T23:09:27.230Z,3.60
2022-11-14T23:13:12.983Z,3.62
2022-11-14T23:16:58.851Z,3.63
2022-11-14T23:20:44.076Z,3.62
2022-11-14T23:24:29.172Z,3.61
2022-11-14T23:28:14.430Z,3.61
2022-11-14T23:32:00.199Z,3.60
2022-11-14T23:35:46.070Z,3.58
2022-11-14T23:39:31.662Z,3.56
2022-11-14T23:43:16.734Z,3.53
2022-11-14T23:47:02.142Z,3.51
2022-11-14T23:50:50.158Z,3.49
2022-11-14T23:54:35.305Z,3.47
2022-11-14T23:58:21.126Z,3.46
